Relevés horaires Cimetta (Suisse)


Relevés horaires à Cimetta - Mardi 18 Sept. 2018
Heure UTC1 Température [°C] Vent [km/h] Hum. [%] Pres.4 [hPa] Visi. [Km] Nébu. [octa] Préc.5 [mm] Cond.
2m. Res. Ros. Dir.2 Vit. Moy. Raf.3
23:00 11.6 11.4 10.3 ENE 5.6 -- -- 92 850 -- -- -- --
22:00 12.2 12.2 10.6 NO 3.7 -- -- 90 850 -- -- -- --
21:00 12.2 12.1 11.5 OSO 5.6 -- 11.1 95 850(0.8/3h) -- -- -- --
20:00 12.4 12.4 11.7 S 1.9 -- -- 95 850 -- -- -- --
19:00 12.4 12.4 11.3 O 3.7 -- -- 93 850 -- -- -- --
18:00 12.1 11 11.9 SO 11.1 -- 18.5 99 850(0.2/3h) -- -- 0/12h
--
17:00 12.5 11.5 10.7 SO 11.1 -- -- 89 850 -- -- -- --
16:00 13.3 13.3 11.8 SO 5.6 -- -- 91 850 -- -- -- --
15:00 14.3 14.2 12.3 SSO 7.4 -- 18.5 88 850(-0.7/3h) -- -- -- --
14:00 15.7 15.7 13.2 SE 7.4 -- -- 85 850 -- -- -- --
13:00 14.3 14.3 11.2 S 5.6 -- -- 82 850 -- -- -- --
12:00 14.0 14.0 12.0 E 5.6 -- 13.0 88 850(-0.4/3h) -- -- 0/6h
--
11:00 14.7 14.7 13.1 ENE 5.6 -- -- 90 850 -- -- -- --
10:00 13.5 13.5 11.8 ENE 5.6 -- -- 89 850 -- -- -- --
09:00 13.4 13.4 12.2 E 1.9 -- 5.6 92 850(0.5/3h) -- -- -- --
08:00 12.6 12.6 12.1 NO 1.9 -- -- 97 850 -- -- -- --
07:00 11.8 11.8 11.4 ESE 1.9 -- -- 97 850 -- -- -- --
06:00 11.5 11.5 11.0 ENE 1.9 -- 7.4 97 850(0.2/3h) -- -- 0/12h
0.1/24h
--
05:00 11.5 11.5 11.0 NE 1.9 -- -- 97 850 -- -- -- --
04:00 11.4 11.4 10.9 ENE 1.9 -- -- 97 850 -- -- -- --
03:00 11.5 11.5 11.3 ENE 3.7 -- 7.4 99 850(-0.4/3h) -- -- -- --
02:00 11.9 11.9 11.4 S 1.9 -- -- 97 850 -- -- -- --
01:00 11.7 11.1 11.6 ENE 7.4 -- -- 99 850 -- -- -- --
00:00 11.8 11.8 11.4 E 3.7 -- 16.7 97 850(-0.6/3h) -- -- 0/6h
--

1 Coordinated Universal Time. Actuellement il est 21:00 locale et 19:00 UTC.

2 Le vent souffle depuis la direction indiquée vers la direction oposée.

3 Les rafales max. sont disponible 40 min après l'heure du relevé.

4 Pour les stations d'altitude (plus de 600m) le géopotentiel du niveau le plus proche de la pression obligatoire est indiqué.

5 Les stations disposant d'un diffuseur peuvent indiquer "trace". Cela signifie que des précipitations ont touchés le sol mais que la quantité est inférieure à 0.1 mm.

Récapitulatif de la journée
Température [°C] Vent [km/h] Ensoleillement4 [h] Precipitations totale5 [mm] Pression [Hpa]
Min1 Max.2 Moy.3 Max. Min Max.
11.3 16.4 0 18.5 2 h 42 min 0 850.0 850.0

1 Température minimale relevée entre 18:00 UTC la veille et 18:00 UTC le jour donné.

2 Température maximale relevée entre 06:00 UTC le jour donné et 06:00 UTC le lendemain.

3 Vent moyen de la journée basé sur les relevés horaires.

4 Ensoleillement en heures relevé entre 06:00 UTC la veille et 06:00 UTC le jour donné.

5 Précipitations totales tombées entre 06:00 UTC la jour donné et 06:00 UTC le lendemain.

Graphiques horaires